ADDS METAR Data INFO
IDs: Format: Raw Decoded Include TAF

Data at: 2113 UTC 22 Oct 2017

KTUL 222053Z 33006KT 10SM FEW045 FEW250 22/02 A3010 RMK AO2 RAB21E30 SLP189 P0000 60000 T02170022 56019 $
KTUL 221953Z 32012KT 10SM FEW045 FEW250 21/04 A3011 RMK AO2 SLP194 T02110044 $
KTUL 221853Z 36010KT 10SM FEW250 20/07 A3013 RMK AO2 SLP200 T02000067 $
KTUL 221753Z 35012G17KT 10SM FEW250 19/07 A3016 RMK AO2 SLP208 T01890072 10189 20111 50004 $
KTUL 221653Z 35012KT 10SM FEW250 18/08 A3017 RMK AO2 SLP211 T01780078 $
KTUL 221553Z 35011KT 10SM SCT250 14/09 A3016 RMK AO2 SLP212 T01440089 $
KTUL 221453Z 32010KT 10SM SCT250 13/10 A3014 RMK AO2 SLP204 T01280100 51024 $
KTUL 221353Z 31009KT 10SM FEW030 BKN250 11/10 A3013 RMK AO2 SLP198 T01110100 $
KTUL 221253Z 31006KT 10SM SCT030 BKN250 11/10 A3011 RMK AO2 SLP190 T01110100 $
KTUL 221153Z 33008KT 10SM SCT250 12/11 A3007 RMK AO2 SLP178 60014 70165 T01170106 10150 20117 51017 $
KTUL 221053Z 33007KT 10SM OVC200 12/11 A3006 RMK AO2 SLP173 T01220111 $
KTUL 221012Z 34008KT 10SM SCT011 SCT075 OVC200 12/11 A3004 RMK AO2 T01220111 $
KTUL 220953Z 33009KT 10SM OVC011 12/12 A3004 RMK AO2 SLP167 T01220117 $
KTUL 220853Z 34010KT 10SM OVC011 13/12 A3002 RMK AO2 WSHFT 0747 SLP160 FROPA 60014 T01280122 51015 $
KTUL 220826Z 32008KT 10SM OVC011 13/12 A2999 RMK AO2 WSHFT 0747 LTG DSNT SE FROPA T01280122 $
KTUL 220807Z 31008KT 10SM BKN009 13/13 A3000 RMK AO2 WSHFT 0747 FROPA T01330128 $
KTUL 220753Z 30011KT 10SM BKN009 BKN100 13/13 A3001 RMK AO2 LTG DSNT SE RAE46 SLP156 OCNL LTGICCC DSNT SE CB DSNT SE MOV SE P0002 T01330128 $
KTUL 220744Z 34007KT 310V010 10SM -RA FEW009 SCT090 BKN100 13/12 A2999 RMK AO2 LTG DSNT SE PRESRR P0002 T01330122 $
KTUL 220715Z 01008KT 9SM -RA SCT023 OVC085 13/13 A2996 RMK AO2 LTG DSNT E AND SE P0001 T01330128 $
KTUL 220653Z 35012KT 10SM -RA SCT008 SCT014 OVC022 14/13 A2999 RMK AO2 LTG DSNT N-SE TSB0554E19 SLP151 OCNL LTGICCC DSNT ALQDS CB DSNT ALQDS MOV E P0012 T01390128 $
KTUL 220645Z 33014KT 10SM -RA SCT008 BKN014 OVC022 14/13 A2999 RMK AO2 LTG DSNT N-SE TSB0554E19 PRESRR OCNL LTGICCC DSNT ALQDS CB DSNT ALQDS MOV E P0012 T01390133 $
KTUL 220625Z 34015KT 7SM -RA SCT006 BKN015 OVC075 14/14 A2997 RMK AO2 LTG DSNT ALQDS TSB0554E19 OCNL LTGICCC DSNT ALQDS CB DSNT ALQDS MOV E P0011 T01440139 $
KTUL 220600Z 35011KT 5SM TSRA BR FEW006 SCT019CB OVC075 15/14 A2996 RMK AO2 LTG DSNT ALQDS TSB0554 OCNL LTGICCCCG OHD-ALQDS TS OHD-ALQDS MOV E P0003 T01500144 $
KTUL 220553Z 33012KT 4SM RA BR FEW006 SCT019 OVC075 16/15 A2997 RMK AO2 LTG DSNT ALQDS SLP143 OCNL LTGICCC DSNT ALQDS P0023 60151 T01560150 10250 20150 402720150 51035 $
KTUL 220532Z 01009KT 4SM RA BR SCT009 BKN017 OVC049 16/15 A2996 RMK AO2 LTG DSNT ALQDS OCNL LTGICCC DSNT ALQDS P0015 T01560150 $
KTUL 220519Z 35007KT 5SM RA BR BKN009 BKN015 OVC025 16/15 A2996 RMK AO2 LTG DSNT ALQDS OCNL LTGICCC DSNT ALQDS P0009 T01560150 $
KTUL 220453Z 31007KT 4SM RA BR BKN011 BKN050 OVC075 16/15 A2993 RMK AO2 LTG DSNT ALQDS TSE37 SLP130 OCNL LTGICCC DSNT NE-E-SE CB DSNT NE-E-SE MOV E P0025 T01560150 $
KTUL 220443Z 35007KT 5SM RA BR FEW010 BKN080 OVC100 16/15 A2992 RMK AO2 LTG DSNT ALQDS TSE37 OCNL LTGICCC DSNT NE-E-SE CB DSNT NE-E-SE MOV E P0023 T01560150 $
KTUL 220421Z 31007KT 5SM -TSRA BR FEW008 BKN046CB OVC075 16/15 A2993 RMK AO2 LTG DSNT ALQDS FRQ LTGICCCCG OHD-ALQDS TS OHD-ALQDS MOV E P0020 T01560150 $
KTUL 220411Z 26005KT 2SM TSRA BR FEW008 OVC044CB 16/15 A2996 RMK AO2 LTG DSNT ALQDS FRQ LTGICCCCG OHD-ALQDS TS OHD-ALQDS MOV E P0017 T01560150 $
KTUL 220403Z 31004KT 1 3/4SM +TSRA BR BKN008 OVC037CB 16/15 A2992 RMK AO2 LTG DSNT ALQDS FRQ LTGICCCCG OHD-ALQDS TS OHD-ALQDS MOV E P0010 T01560150 $
KTUL 220353Z 28010KT 3SM +TSRA BR FEW003 SCT010 OVC039CB 16/15 A2995 RMK AO2 WSHFT 0240 LTG DSNT ALQDS PRESRR SLP136 FRQ LTGICCG OHD-ALQDS TS OHD-ALQDS MOV E P0103 T01560150 $
KTUL 220343Z 33009KT 2SM +TSRA BR FEW005 SCT010 OVC024CB 16/15 A2988 RMK AO2 WSHFT 0240 LTG DSNT ALQDS FRQ LTGICCG OHD-ALQDS TS OHD-ALQDS MOV E P0098 T01560150 $
KTUL 220316Z 30007KT 1 1/2SM +TSRA BR FEW005 BKN017 OVC027CB 16/15 A2990 RMK AO2 WSHFT 0240 LTG DSNT ALQDS FRQ LTGICCG OHD-ALQDS TS OHD-ALQDS MOV E P0054 T01560150 $
KTUL 220256Z 30017G30KT 1SM R36R/4000VP6000FT +TSRA BR FEW020 BKN028 OVC043CB 17/14 A2991 RMK AO2 WSHFT 0240 LTG DSNT ALQDS PRESRR FROPA FRQ LTGICCG OHD-ALQDS TS OHD-ALQDS MOV E P0003 T01670144
KTUL 220253Z 30020G31KT 1 1/2SM R36R/4000VP6000FT +TSRA BKN030 OVC043CB 18/14 A2987 RMK AO2 PK WND 33033/0240 WSHFT 0238 LTG DSNT ALQDS RAB50 TSB45 SLP108 FRQ LTGICCG SW-NW-N TS SW-NW-N MOV E P0000 60000 T01830139 53021
KTUL 220245Z 29025G33KT 10SM TS FEW030 BKN043 OVC050CB 21/14 A2988 RMK AO2 PK WND 33033/0240 LTG DSNT ALQDS TSB45 PRESRR FRQ LTGICCG SW-NW-N TS SW-NW-N MOV E T02060139
KTUL 220219Z 16006KT 10SM VCTS BKN048CB OVC070 24/18 A2982 RMK AO2 LTG DSNT SW-N FRQ LTGIC VC W-NW TS VC W-NW MOV E T02440183
KTUL 220153Z 16010KT 10SM FEW035 OVC070 24/18 A2980 RMK AO2 SLP084 OCNL LTGIC DSNT NW CB DSNT NW MOV E T02440183
KTUL 220053Z 16011KT 10SM OVC065 25/19 A2979 RMK AO2 SLP079 T02500189
KTUL 212353Z 16011KT 10SM FEW038 BKN065 25/19 A2981 RMK AO2 SLP086 T02500189 10272 20250 53002
KTUL 212253Z 17015G22KT 10SM FEW038 BKN065 26/19 A2980 RMK AO2 PK WND 17026/2223 SLP084 T02560189
KTUL 212153Z 17017G28KT 10SM BKN036 BKN070 26/19 A2980 RMK AO2 PK WND 17029/2054 SLP083 T02610189
KTUL 212053Z 17018G25KT 10SM FEW039 SCT060 27/18 A2980 RMK AO2 PK WND 18026/2014 SLP083 T02670183 58016
KTUL 211953Z 18014G25KT 10SM SCT038 OVC060 26/18 A2982 RMK AO2 SLP089 T02610183
KTUL 211853Z 18019G29KT 10SM BKN033 OVC060 26/18 A2983 RMK AO2 PK WND 17029/1830 SLP095 T02560183
KTUL 211829Z 17020G28KT 10SM BKN028 BKN033 OVC060 26/19 A2983 RMK AO2 PK WND 17029/1754 T02560189
KTUL 211800Z 17020G29KT 10SM SCT027 BKN031 BKN060 25/19 A2984 RMK AO2 PK WND 17029/1754 T02500189
KTUL 211753Z 17020G29KT 10SM BKN027 BKN033 BKN060 25/19 A2985 RMK AO2 PK WND 18030/1721 SLP099 T02500189 10250 20194 58010
KTUL 211653Z 17021KT 10SM BKN026 24/19 A2987 RMK AO2 PK WND 16029/1629 SLP106 T02440189
KTUL 211608Z 18019G24KT 10SM BKN022 BKN060 24/19 A2987 RMK AO2 T02390189
KTUL 211553Z 18018G26KT 10SM SCT020 BKN060 24/19 A2987 RMK AO2 PK WND 18029/1540 SLP109 T02390189
KTUL 211521Z 17018G28KT 10SM SCT018 BKN060 23/18 A2987 RMK AO2 PK WND 18028/1517 T02280183
KTUL 211453Z 17020G26KT 10SM BKN017 BKN060 22/18 A2988 RMK AO2 PK WND 18026/1451 SLP110 T02220183 50004
KTUL 211353Z 17011G21KT 10SM OVC017 21/18 A2988 RMK AO2 SLP112 T02110183
KTUL 211253Z 15009KT 10SM OVC019 20/17 A2987 RMK AO2 SLP109 T02000172
KTUL 211227Z 15009KT 10SM BKN019 BKN024 OVC050 19/17 A2987 RMK AO2 T01940172
KTUL 211205Z 15013KT 10SM SCT022 OVC055 19/17 A2987 RMK AO2 T01940167
KTUL 211153Z 14013KT 10SM BKN021 OVC050 19/17 A2986 RMK AO2 SLP106 T01940167 10200 20189 53000
KTUL 211053Z 15008KT 10SM OVC017 19/16 A2987 RMK AO2 SLP107 T01940161
KTUL 210953Z 16009G17KT 10SM OVC018 19/16 A2986 RMK AO2 SLP103 T01940156